Time;durP1;ratioP1;P1;durP2;ratioP2;P2;SDS_P1;SDS_P2;PMS_P1;PMS_P2;Temp;Humidity;BMP_temperature;BMP_pressure;BME280_temperature;BME280_humidity;BME280_pressure;Samples;Min_cycle;Max_cycle;Signal;HPM_P1;HPM_P2
2021/12/22 00:01:49;;;;;;;331.73;315.40;;;-2.70;99.90;;;;;;4405354;32;20556;-66
2021/12/22 00:04:16;;;;;;;327.17;310.90;;;-2.70;99.90;;;;;;4405489;32;20132;-62
2021/12/22 00:06:43;;;;;;;322.13;306.83;;;-2.70;99.90;;;;;;4406330;32;20632;-63
2021/12/22 00:09:10;;;;;;;321.83;306.33;;;-2.70;99.90;;;;;;4406894;32;20159;-63
2021/12/22 00:11:37;;;;;;;327.60;311.47;;;-2.70;99.90;;;;;;4405299;32;20164;-66
2021/12/22 00:14:04;;;;;;;335.17;318.87;;;-2.70;99.90;;;;;;4414400;32;20211;-64
2021/12/22 00:16:31;;;;;;;325.73;309.77;;;-2.70;99.90;;;;;;4420445;32;20640;-63
2021/12/22 00:18:59;;;;;;;334.37;317.83;;;-2.70;99.90;;;;;;4420273;32;20185;-62
2021/12/22 00:21:26;;;;;;;335.67;319.23;;;-2.70;99.90;;;;;;4420405;32;20143;-63
2021/12/22 00:23:53;;;;;;;330.30;314.43;;;-2.70;99.90;;;;;;4420252;32;20521;-62
2021/12/22 00:26:20;;;;;;;325.53;309.67;;;-2.80;99.90;;;;;;4421775;32;20132;-62
2021/12/22 00:28:48;;;;;;;331.37;314.33;;;-2.80;99.90;;;;;;4404707;32;20182;-62
2021/12/22 00:31:18;;;;;;;320.27;304.40;;;-2.70;99.90;;;;;;4408091;32;20201;-63
2021/12/22 00:33:48;;;;;;;314.20;298.93;;;-2.80;99.90;;;;;;4409252;32;20192;-65
2021/12/22 00:36:18;;;;;;;319.67;304.60;;;-2.90;99.90;;;;;;4409693;32;20197;-63
2021/12/22 00:38:46;;;;;;;323.03;306.90;;;-2.90;99.90;;;;;;4410257;32;20152;-62
2021/12/22 00:41:13;;;;;;;325.23;309.77;;;-3.00;99.90;;;;;;4408654;32;20158;-66
2021/12/22 00:43:40;;;;;;;328.60;312.77;;;-3.00;99.90;;;;;;4411082;32;20161;-63
2021/12/22 00:46:07;;;;;;;319.17;303.20;;;-3.00;99.90;;;;;;4417136;32;20445;-63
2021/12/22 00:48:34;;;;;;;319.17;303.50;;;-3.10;99.90;;;;;;4412881;32;20592;-65
2021/12/22 00:51:02;;;;;;;323.73;307.60;;;-3.10;99.90;;;;;;4411137;32;20225;-63
2021/12/22 00:53:30;;;;;;;319.23;303.33;;;-3.10;99.90;;;;;;4407786;32;20162;-64
2021/12/22 00:55:57;;;;;;;329.40;313.70;;;-3.10;99.90;;;;;;4413886;32;20152;-65
2021/12/22 00:58:24;;;;;;;330.23;314.10;;;-3.10;99.90;;;;;;4429525;32;20143;-63
2021/12/22 01:00:51;;;;;;;316.70;301.53;;;-3.10;99.90;;;;;;4421640;32;20166;-66
2021/12/22 01:03:20;;;;;;;314.73;299.20;;;-3.20;99.90;;;;;;4413351;32;20237;-64
2021/12/22 01:05:48;;;;;;;309.07;294.00;;;-3.10;99.90;;;;;;4407736;32;20576;-66
2021/12/22 01:08:15;;;;;;;322.03;306.57;;;-3.20;99.90;;;;;;4407357;32;20232;-63
2021/12/22 01:10:44;;;;;;;322.37;306.67;;;-3.20;99.90;;;;;;4407960;32;20163;-63
2021/12/22 01:13:12;;;;;;;314.33;299.23;;;-3.20;99.90;;;;;;4408063;32;20584;-61
2021/12/22 01:15:40;;;;;;;314.03;298.83;;;-3.20;99.90;;;;;;4411733;32;20205;-63
2021/12/22 01:18:11;;;;;;;319.00;303.67;;;-3.10;99.90;;;;;;4410324;32;20171;-64
2021/12/22 01:20:52;;;;;;;304.73;290.00;;;-3.20;99.90;;;;;;4411537;32;20184;-62
2021/12/22 01:23:20;;;;;;;302.87;288.27;;;-3.20;99.90;;;;;;4422252;32;20133;-62
2021/12/22 01:25:49;;;;;;;312.33;297.07;;;-3.20;99.90;;;;;;4419797;32;20178;-62
2021/12/22 01:28:16;;;;;;;310.77;295.73;;;-3.10;99.90;;;;;;4417829;32;20586;-66
2021/12/22 01:30:46;;;;;;;303.20;288.63;;;-3.20;99.90;;;;;;4417287;32;20220;-61
2021/12/22 01:33:15;;;;;;;310.03;294.57;;;-3.20;99.90;;;;;;4407360;32;20168;-62
2021/12/22 01:35:42;;;;;;;323.80;307.70;;;-3.20;99.90;;;;;;4409919;32;20523;-62
2021/12/22 01:38:10;;;;;;;324.57;308.63;;;-3.10;99.90;;;;;;4407305;32;20140;-65
2021/12/22 01:40:40;;;;;;;316.70;300.93;;;-3.20;99.90;;;;;;4411123;32;20202;-64
2021/12/22 01:43:09;;;;;;;333.63;317.40;;;-3.10;99.90;;;;;;4423067;32;20183;-62
2021/12/22 01:45:54;;;;;;;331.93;316.07;;;-3.10;99.90;;;;;;4408815;32;20131;-65
2021/12/22 01:51:34;;;;;;;322.37;307.10;;;-3.10;99.90;;;;;;4416866;32;20169;-64
2021/12/22 01:54:04;;;;;;;310.17;294.63;;;-3.10;99.90;;;;;;4421613;32;20223;-64
2021/12/22 01:56:33;;;;;;;312.43;297.03;;;-3.20;99.90;;;;;;4420271;32;20159;-64
2021/12/22 01:59:03;;;;;;;314.87;299.00;;;-3.20;99.90;;;;;;4420147;32;20603;-65
2021/12/22 02:01:32;;;;;;;308.87;293.30;;;-3.20;99.90;;;;;;4413383;32;20520;-64
2021/12/22 02:04:00;;;;;;;314.33;299.30;;;-3.30;99.90;;;;;;4407368;32;20197;-63
2021/12/22 02:06:26;;;;;;;303.57;288.87;;;-3.40;99.90;;;;;;4407680;32;20503;-62
2021/12/22 02:08:54;;;;;;;312.73;297.23;;;-3.40;99.90;;;;;;4416267;32;20218;-64
2021/12/22 02:11:22;;;;;;;321.37;305.83;;;-3.40;99.90;;;;;;4412398;32;20171;-63
2021/12/22 02:13:59;;;;;;;312.53;297.13;;;-3.40;99.90;;;;;;4407442;32;20144;-64
2021/12/22 02:16:30;;;;;;;312.60;297.43;;;-3.30;99.90;;;;;;4407188;32;20142;-63
2021/12/22 02:18:59;;;;;;;317.20;301.10;;;-3.30;99.90;;;;;;4406535;32;20499;-64
2021/12/22 02:21:32;;;;;;;314.47;298.70;;;-3.30;99.90;;;;;;4406158;32;20143;-65
2021/12/22 02:23:59;;;;;;;319.33;304.07;;;-3.30;99.90;;;;;;4411323;32;20238;-62
2021/12/22 02:26:33;;;;;;;320.80;304.93;;;-3.30;99.90;;;;;;4411943;32;20189;-61
2021/12/22 02:29:04;;;;;;;320.53;304.37;;;-3.30;99.90;;;;;;4405828;32;20231;-64
2021/12/22 02:31:36;;;;;;;325.43;309.80;;;-3.30;99.90;;;;;;4406906;32;20429;-64
2021/12/22 02:34:04;;;;;;;320.07;304.27;;;-3.30;99.90;;;;;;4413786;32;20145;-64
2021/12/22 02:36:38;;;;;;;326.40;310.33;;;-3.20;99.90;;;;;;4412601;32;20145;-62
2021/12/22 02:39:07;;;;;;;317.87;302.30;;;-3.20;99.90;;;;;;4411735;32;20154;-62
2021/12/22 02:41:37;;;;;;;313.30;297.37;;;-3.20;99.90;;;;;;4405645;32;20143;-62
2021/12/22 02:44:07;;;;;;;321.00;305.03;;;-3.20;99.90;;;;;;4406208;32;20152;-65
2021/12/22 02:46:37;;;;;;;322.00;306.00;;;-3.10;99.90;;;;;;4408201;32;20158;-63
2021/12/22 02:49:06;;;;;;;317.47;301.93;;;-3.10;99.90;;;;;;4408496;32;20240;-64
2021/12/22 02:51:35;;;;;;;319.20;303.00;;;-3.10;99.90;;;;;;4406477;32;20156;-65
2021/12/22 02:54:08;;;;;;;315.00;299.53;;;-3.20;99.90;;;;;;4421976;32;20131;-61
2021/12/22 02:56:40;;;;;;;319.80;303.17;;;-3.20;99.90;;;;;;4420503;32;20211;-65
2021/12/22 02:59:32;;;;;;;313.30;297.63;;;-3.20;99.90;;;;;;4421163;32;20544;-64
2021/12/22 03:04:53;;;;;;;305.07;289.33;;;-3.20;99.90;;;;;;4373549;32;20153;-64
2021/12/22 03:07:24;;;;;;;305.90;290.23;;;-3.20;99.90;;;;;;4371849;32;20156;-64
2021/12/22 03:10:00;;;;;;;315.07;299.87;;;-3.20;99.90;;;;;;4372796;32;20175;-61
2021/12/22 03:12:28;;;;;;;303.70;288.70;;;-3.30;99.90;;;;;;4373574;32;20141;-62
2021/12/22 03:14:55;;;;;;;314.63;299.13;;;-3.30;99.90;;;;;;4372899;32;20190;-62
2021/12/22 03:17:22;;;;;;;312.07;296.90;;;-3.30;99.90;;;;;;4359407;32;20228;-65
2021/12/22 03:19:49;;;;;;;317.47;301.83;;;-3.20;99.90;;;;;;4358537;33;20192;-63
2021/12/22 03:22:19;;;;;;;308.27;293.03;;;-3.20;99.90;;;;;;4358473;32;20173;-65
2021/12/22 03:24:49;;;;;;;304.70;289.80;;;-3.30;99.90;;;;;;4359170;32;20145;-63
2021/12/22 03:27:17;;;;;;;315.20;300.30;;;-3.30;99.90;;;;;;4360120;32;20617;-65
2021/12/22 03:29:44;;;;;;;304.80;289.83;;;-3.30;99.90;;;;;;4356293;32;20167;-62
2021/12/22 03:32:12;;;;;;;314.57;299.77;;;-3.40;99.90;;;;;;4365367;32;20175;-64
2021/12/22 03:34:39;;;;;;;310.00;294.73;;;-3.40;99.90;;;;;;4361832;32;20545;-62
2021/12/22 03:37:08;;;;;;;312.30;296.97;;;-3.40;99.90;;;;;;4372511;32;20566;-63
2021/12/22 03:39:35;;;;;;;312.87;297.30;;;-3.50;99.90;;;;;;4373288;32;20561;-63
2021/12/22 03:42:05;;;;;;;309.77;294.57;;;-3.50;99.90;;;;;;4394597;32;20170;-60
2021/12/22 03:44:32;;;;;;;313.17;298.33;;;-3.50;99.90;;;;;;4404864;32;20183;-64
2021/12/22 03:47:00;;;;;;;312.20;297.33;;;-3.50;99.90;;;;;;4412063;32;20246;-63
2021/12/22 03:49:28;;;;;;;307.07;292.23;;;-3.60;99.90;;;;;;4420896;32;20143;-64
2021/12/22 03:51:55;;;;;;;299.07;284.07;;;-3.50;99.90;;;;;;4419973;32;20584;-64
2021/12/22 03:54:22;;;;;;;309.03;293.47;;;-3.60;99.90;;;;;;4419014;32;20144;-63
2021/12/22 03:56:49;;;;;;;316.40;300.37;;;-3.60;99.90;;;;;;4416353;32;20182;-64
2021/12/22 03:59:19;;;;;;;311.33;295.87;;;-3.60;99.90;;;;;;4406502;32;20148;-65
2021/12/22 04:01:47;;;;;;;303.67;287.83;;;-3.50;99.90;;;;;;4405289;32;20580;-64
2021/12/22 04:04:17;;;;;;;314.10;298.87;;;-3.60;99.90;;;;;;4407141;32;20178;-63
2021/12/22 04:06:45;;;;;;;310.50;295.60;;;-3.60;99.90;;;;;;4405805;32;20186;-65
2021/12/22 04:09:12;;;;;;;309.93;294.90;;;-3.50;99.90;;;;;;4405935;32;20136;-64
2021/12/22 04:11:39;;;;;;;314.73;299.33;;;-3.50;99.90;;;;;;4408992;32;20179;-62
2021/12/22 04:14:07;;;;;;;309.57;294.07;;;-3.50;99.90;;;;;;4416384;32;20215;-63
2021/12/22 04:16:35;;;;;;;318.17;302.57;;;-3.50;99.90;;;;;;4409385;32;20230;-63
2021/12/22 04:19:02;;;;;;;318.47;302.23;;;-3.40;99.90;;;;;;4420208;32;20234;-63
2021/12/22 04:21:29;;;;;;;318.73;303.30;;;-3.40;99.90;;;;;;4418892;32;20151;-62
2021/12/22 04:23:56;;;;;;;321.97;306.43;;;-3.50;99.90;;;;;;4420504;32;20166;-61
2021/12/22 04:26:24;;;;;;;342.27;325.27;;;-3.40;99.90;;;;;;4420102;32;20159;-63
2021/12/22 04:28:51;;;;;;;325.43;309.33;;;-3.40;99.90;;;;;;4409861;32;20160;-63
2021/12/22 04:31:17;;;;;;;325.47;309.00;;;-3.40;99.90;;;;;;4408700;32;20160;-64
2021/12/22 04:33:46;;;;;;;333.63;316.93;;;-3.40;99.90;;;;;;4418542;32;20585;-62
2021/12/22 04:36:12;;;;;;;334.70;317.93;;;-3.40;99.90;;;;;;4422110;32;20155;-64
2021/12/22 04:38:39;;;;;;;331.37;315.20;;;-3.40;99.90;;;;;;4424401;32;20258;-63
2021/12/22 04:41:06;;;;;;;324.87;309.03;;;-3.30;99.90;;;;;;4421950;32;20135;-61
2021/12/22 04:43:33;;;;;;;329.03;312.63;;;-3.40;99.90;;;;;;4419977;32;20156;-61
2021/12/22 04:46:00;;;;;;;322.57;306.07;;;-3.30;99.90;;;;;;4411773;32;20584;-60
2021/12/22 04:48:27;;;;;;;329.73;313.77;;;-3.30;99.90;;;;;;4421508;32;20140;-62
2021/12/22 04:50:55;;;;;;;333.03;315.90;;;-3.30;99.90;;;;;;4416088;32;20158;-60
2021/12/22 04:53:25;;;;;;;335.53;319.57;;;-3.30;99.90;;;;;;4408776;32;20132;-62
2021/12/22 04:55:52;;;;;;;328.63;312.70;;;-3.30;99.90;;;;;;4420760;32;20151;-61
2021/12/22 04:58:19;;;;;;;327.17;310.83;;;-3.20;99.90;;;;;;4419344;32;20270;-63
2021/12/22 05:00:46;;;;;;;337.17;320.17;;;-3.20;99.90;;;;;;4421958;32;20186;-62
2021/12/22 05:03:13;;;;;;;332.00;315.43;;;-3.20;99.90;;;;;;4424019;32;20163;-61
2021/12/22 05:05:40;;;;;;;328.73;312.80;;;-3.30;99.90;;;;;;4422572;32;20296;-62
2021/12/22 05:08:08;;;;;;;331.93;315.23;;;-3.30;99.90;;;;;;4417605;32;20193;-61
2021/12/22 05:10:35;;;;;;;327.23;311.10;;;-3.30;99.90;;;;;;4409316;32;20134;-61
2021/12/22 05:13:01;;;;;;;324.03;307.63;;;-3.30;99.90;;;;;;4409965;32;20168;-64
2021/12/22 05:15:36;;;;;;;345.70;329.00;;;-3.20;99.90;;;;;;4420639;32;20147;-63
2021/12/22 05:20:54;;;;;;;335.67;318.97;;;-3.20;99.90;;;;;;4361015;32;20204;-62
2021/12/22 05:23:22;;;;;;;336.83;320.57;;;-3.30;99.90;;;;;;4367015;32;20148;-62
2021/12/22 05:25:49;;;;;;;333.30;316.97;;;-3.30;99.90;;;;;;4376746;32;20215;-63
2021/12/22 05:28:16;;;;;;;334.47;317.77;;;-3.30;99.90;;;;;;4373363;32;20231;-61
2021/12/22 05:30:46;;;;;;;333.17;316.47;;;-3.30;99.90;;;;;;4374028;32;20246;-62
2021/12/22 05:33:13;;;;;;;333.90;317.03;;;-3.30;99.90;;;;;;4367820;32;20191;-62
2021/12/22 05:35:40;;;;;;;335.07;318.33;;;-3.30;99.90;;;;;;4364379;32;20214;-61
2021/12/22 05:38:07;;;;;;;335.00;317.93;;;-3.30;99.90;;;;;;4359900;32;20224;-63
2021/12/22 05:40:35;;;;;;;321.87;306.10;;;-3.30;99.90;;;;;;4360937;32;20241;-61
2021/12/22 05:43:02;;;;;;;323.03;307.10;;;-3.30;99.90;;;;;;4359735;32;20549;-64
2021/12/22 05:45:29;;;;;;;328.00;311.73;;;-3.30;99.90;;;;;;4359985;32;20153;-62
2021/12/22 05:47:56;;;;;;;340.23;323.33;;;-3.30;99.90;;;;;;4373912;32;20236;-61
2021/12/22 05:50:24;;;;;;;327.90;310.97;;;-3.30;99.90;;;;;;4360042;32;20191;-62
2021/12/22 05:52:51;;;;;;;335.20;317.63;;;-3.30;99.90;;;;;;4370895;32;20539;-64
2021/12/22 05:55:18;;;;;;;338.63;322.43;;;-3.30;99.90;;;;;;4374131;32;20172;-62
2021/12/22 05:57:47;;;;;;;329.17;312.93;;;-3.30;99.90;;;;;;4398550;32;20535;-61
2021/12/22 06:00:15;;;;;;;334.83;318.17;;;-3.30;99.90;;;;;;4407239;32;20258;-60
2021/12/22 06:02:42;;;;;;;325.67;309.83;;;-3.30;99.90;;;;;;4407133;32;20137;-62
2021/12/22 06:05:10;;;;;;;341.90;325.00;;;-3.30;99.90;;;;;;4406281;32;20164;-62
2021/12/22 06:07:37;;;;;;;336.93;319.93;;;-3.30;99.90;;;;;;4418325;32;20158;-63
2021/12/22 06:10:06;;;;;;;324.13;307.57;;;-3.40;99.90;;;;;;4418120;32;20147;-63
2021/12/22 06:12:33;;;;;;;332.13;316.10;;;-3.30;99.90;;;;;;4411963;32;20155;-62
2021/12/22 06:15:01;;;;;;;334.50;318.07;;;-3.30;99.90;;;;;;4406675;32;20146;-63
2021/12/22 06:17:28;;;;;;;326.57;310.40;;;-3.30;99.90;;;;;;4414862;32;20149;-63
2021/12/22 06:19:55;;;;;;;336.43;319.57;;;-3.40;99.90;;;;;;4420711;32;20131;-63
2021/12/22 06:22:22;;;;;;;333.47;316.67;;;-3.40;99.90;;;;;;4422784;32;20667;-62
2021/12/22 06:24:49;;;;;;;345.07;327.73;;;-3.30;99.90;;;;;;4421368;32;20143;-62
2021/12/22 06:27:16;;;;;;;334.17;316.87;;;-3.30;99.90;;;;;;4420904;32;20158;-63
2021/12/22 06:29:43;;;;;;;338.47;321.00;;;-3.40;99.90;;;;;;4420342;32;20242;-63
2021/12/22 06:32:11;;;;;;;327.97;311.90;;;-3.40;99.90;;;;;;4419385;32;20153;-63
2021/12/22 06:34:38;;;;;;;334.93;318.00;;;-3.40;99.90;;;;;;4435823;32;20571;-62
2021/12/22 06:37:05;;;;;;;336.47;318.23;;;-3.40;99.90;;;;;;4423006;32;20589;-62
2021/12/22 06:39:33;;;;;;;335.47;318.43;;;-3.50;99.90;;;;;;4410178;32;20163;-64
2021/12/22 06:42:00;;;;;;;337.37;321.30;;;-3.50;99.90;;;;;;4406725;32;20171;-64
2021/12/22 06:44:28;;;;;;;338.67;321.90;;;-3.50;99.90;;;;;;4407875;32;20507;-62
2021/12/22 06:46:54;;;;;;;336.63;320.23;;;-3.50;99.90;;;;;;4406354;32;20595;-62
2021/12/22 06:49:24;;;;;;;345.13;327.50;;;-3.50;99.90;;;;;;4411653;32;20242;-63
2021/12/22 06:51:51;;;;;;;328.00;312.17;;;-3.50;99.90;;;;;;4417211;32;20166;-63
2021/12/22 06:54:18;;;;;;;337.17;320.30;;;-3.50;99.90;;;;;;4416778;32;20156;-62
2021/12/22 06:56:45;;;;;;;335.20;317.57;;;-3.60;99.90;;;;;;4419780;32;20144;-62
2021/12/22 06:59:13;;;;;;;331.07;314.30;;;-3.60;99.90;;;;;;4414146;32;20249;-64
2021/12/22 07:01:40;;;;;;;332.90;316.43;;;-3.60;99.90;;;;;;4407269;32;20199;-62
2021/12/22 07:04:07;;;;;;;333.87;316.67;;;-3.60;99.90;;;;;;4411181;32;20162;-63
2021/12/22 07:06:35;;;;;;;330.20;313.57;;;-3.60;99.90;;;;;;4405753;32;20219;-63
2021/12/22 07:09:02;;;;;;;335.13;318.43;;;-3.60;99.90;;;;;;4416381;32;20151;-63
2021/12/22 07:11:29;;;;;;;336.13;319.00;;;-3.60;99.90;;;;;;4406407;32;20159;-62
2021/12/22 07:13:57;;;;;;;324.10;307.67;;;-3.60;99.90;;;;;;4411522;32;20151;-62
2021/12/22 07:16:24;;;;;;;325.60;309.53;;;-3.60;99.90;;;;;;4417898;32;20174;-63
2021/12/22 07:18:51;;;;;;;327.93;311.53;;;-3.60;99.90;;;;;;4420773;32;20253;-63
2021/12/22 07:21:18;;;;;;;332.63;316.27;;;-3.60;99.90;;;;;;4419472;32;20229;-63
2021/12/22 07:23:46;;;;;;;336.27;319.17;;;-3.60;99.90;;;;;;4419987;32;20163;-62
2021/12/22 07:26:14;;;;;;;337.87;320.73;;;-3.60;99.90;;;;;;4419691;32;20154;-62
2021/12/22 07:28:42;;;;;;;342.47;325.13;;;-3.50;99.90;;;;;;4405854;32;20216;-63
2021/12/22 07:31:09;;;;;;;348.70;331.50;;;-3.50;99.90;;;;;;4406979;32;20584;-60
2021/12/22 07:33:36;;;;;;;342.53;325.70;;;-3.50;99.90;;;;;;4422386;32;20960;-62
2021/12/22 07:36:06;;;;;;;361.93;343.30;;;-3.50;99.90;;;;;;4415534;32;20163;-63
2021/12/22 07:38:41;;;;;;;365.70;346.93;;;-3.40;99.90;;;;;;4409547;32;20632;-63
2021/12/22 07:41:10;;;;;;;346.00;329.07;;;-3.40;99.90;;;;;;4409107;32;20155;-63
2021/12/22 07:43:37;;;;;;;352.00;334.73;;;-3.40;99.90;;;;;;4418166;32;20149;-62
2021/12/22 07:46:05;;;;;;;350.17;332.73;;;-3.40;99.90;;;;;;4409592;32;20715;-61
2021/12/22 07:48:32;;;;;;;339.37;321.67;;;-3.40;99.90;;;;;;4415256;32;20206;-62
2021/12/22 07:50:59;;;;;;;342.57;325.67;;;-3.40;99.90;;;;;;4405412;32;20170;-63
2021/12/22 07:53:26;;;;;;;343.67;326.47;;;-3.30;99.90;;;;;;4409697;32;20199;-63
2021/12/22 07:55:53;;;;;;;343.73;326.93;;;-3.30;99.90;;;;;;4408350;32;20174;-63
2021/12/22 07:58:23;;;;;;;344.77;327.50;;;-3.30;99.90;;;;;;4410862;32;20196;-65
2021/12/22 08:00:50;;;;;;;344.90;327.77;;;-3.30;99.90;;;;;;4415593;32;20175;-63
2021/12/22 08:03:17;;;;;;;346.33;329.03;;;-3.20;99.90;;;;;;4410240;32;20164;-66
2021/12/22 08:05:44;;;;;;;353.40;335.37;;;-3.20;99.90;;;;;;4420559;32;20569;-64
2021/12/22 08:08:11;;;;;;;357.43;339.30;;;-3.10;99.90;;;;;;4415277;32;20186;-63
2021/12/22 08:10:39;;;;;;;357.17;338.93;;;-3.10;99.90;;;;;;4411956;32;20148;-63
2021/12/22 08:13:05;;;;;;;354.90;336.63;;;-3.00;99.90;;;;;;4410208;32;20141;-64
2021/12/22 08:15:34;;;;;;;347.50;329.33;;;-3.00;99.90;;;;;;4414361;32;20209;-61
2021/12/22 08:18:01;;;;;;;337.73;320.57;;;-2.90;99.90;;;;;;4412404;32;20179;-63
2021/12/22 08:20:28;;;;;;;341.77;324.67;;;-2.90;99.90;;;;;;4420191;32;20274;-62
2021/12/22 08:22:55;;;;;;;334.13;317.10;;;-2.80;99.90;;;;;;4429543;32;20519;-63
2021/12/22 08:25:23;;;;;;;333.97;316.67;;;-2.70;99.90;;;;;;4413098;32;20148;-63
2021/12/22 08:27:49;;;;;;;322.90;306.30;;;-2.60;99.90;;;;;;4409054;32;20194;-62
2021/12/22 08:30:16;;;;;;;334.07;317.97;;;-2.60;99.90;;;;;;4414680;32;20632;-63
2021/12/22 08:32:45;;;;;;;327.23;311.17;;;-2.60;99.90;;;;;;4410009;32;20135;-63
2021/12/22 08:35:15;;;;;;;316.43;299.80;;;-2.50;99.90;;;;;;4408947;32;20191;-65
2021/12/22 08:40:30;;;;;;;337.03;320.10;;;-2.40;99.90;;;;;;4419947;32;20482;-64
2021/12/22 08:42:57;;;;;;;334.17;317.80;;;-2.30;99.90;;;;;;4408616;32;20191;-62
2021/12/22 08:45:24;;;;;;;339.77;322.60;;;-2.30;99.90;;;;;;4410746;32;20172;-62
2021/12/22 08:47:52;;;;;;;344.83;327.33;;;-2.30;99.90;;;;;;4415249;32;20183;-62
2021/12/22 08:50:20;;;;;;;353.27;335.30;;;-2.30;99.90;;;;;;4407591;32;20229;-66
2021/12/22 08:52:47;;;;;;;359.67;341.83;;;-2.20;99.90;;;;;;4411525;32;20701;-63
2021/12/22 08:55:15;;;;;;;351.67;334.47;;;-2.10;99.90;;;;;;4411899;32;20234;-63
2021/12/22 08:57:42;;;;;;;338.93;322.30;;;-2.00;99.90;;;;;;4408970;32;20248;-63
2021/12/22 09:00:12;;;;;;;338.17;321.60;;;-2.00;99.90;;;;;;4413852;32;20148;-62
2021/12/22 09:02:40;;;;;;;348.77;330.93;;;-2.00;99.90;;;;;;4425733;32;20140;-62
2021/12/22 09:05:09;;;;;;;339.03;322.20;;;-1.90;99.90;;;;;;4409479;32;20463;-66
2021/12/22 09:07:36;;;;;;;351.60;334.17;;;-1.80;99.90;;;;;;4409194;32;20201;-62
2021/12/22 09:10:05;;;;;;;351.13;333.50;;;-1.70;99.90;;;;;;4412334;32;20466;-63
2021/12/22 09:12:32;;;;;;;364.63;345.87;;;-1.70;99.90;;;;;;4417215;32;20160;-62
2021/12/22 09:14:59;;;;;;;357.17;339.53;;;-1.60;99.90;;;;;;4408862;32;20152;-62
2021/12/22 09:17:26;;;;;;;353.53;336.10;;;-1.60;99.90;;;;;;4414573;32;20150;-64
2021/12/22 09:19:55;;;;;;;346.60;329.80;;;-1.50;99.90;;;;;;4413231;32;20572;-63
2021/12/22 09:22:24;;;;;;;340.77;323.97;;;-1.50;99.90;;;;;;4415627;32;20254;-63
2021/12/22 09:24:51;;;;;;;346.20;329.47;;;-1.50;99.90;;;;;;4415789;32;20140;-63
2021/12/22 09:27:49;;;;;;;353.43;336.43;;;-1.40;99.90;;;;;;4413223;32;20564;-62
2021/12/22 09:30:16;;;;;;;339.03;322.60;;;-1.30;99.90;;;;;;4410256;32;20495;-62
2021/12/22 09:32:43;;;;;;;339.53;322.43;;;-1.30;99.90;;;;;;4416601;32;20148;-63
2021/12/22 09:35:10;;;;;;;317.73;302.00;;;-1.20;99.90;;;;;;4411310;32;20163;-64
2021/12/22 09:37:38;;;;;;;314.40;298.60;;;-1.20;99.90;;;;;;4412556;32;20174;-63
2021/12/22 09:40:06;;;;;;;321.57;305.77;;;-1.20;99.90;;;;;;4414558;32;20536;-63
2021/12/22 09:42:33;;;;;;;316.20;300.57;;;-1.10;99.90;;;;;;4412754;32;20147;-63
2021/12/22 09:45:01;;;;;;;317.67;302.10;;;-1.10;99.90;;;;;;4413393;32;20274;-63
2021/12/22 09:47:41;;;;;;;312.73;297.37;;;-1.00;99.90;;;;;;4411422;32;20565;-61
2021/12/22 09:50:10;;;;;;;308.50;293.40;;;-1.00;99.90;;;;;;4412215;32;20181;-64
2021/12/22 09:52:40;;;;;;;305.00;289.63;;;-0.90;99.90;;;;;;4411603;32;20143;-64
2021/12/22 09:55:09;;;;;;;314.30;298.83;;;-0.80;99.90;;;;;;4412824;32;20235;-65
2021/12/22 09:57:36;;;;;;;294.77;280.73;;;-0.80;99.90;;;;;;4412198;32;20151;-63
2021/12/22 10:00:06;;;;;;;302.87;288.07;;;-0.80;99.90;;;;;;4409524;32;20218;-65
2021/12/22 10:02:33;;;;;;;307.67;292.40;;;-0.80;99.90;;;;;;4415965;32;20576;-62
2021/12/22 10:05:07;;;;;;;304.47;289.33;;;-0.80;99.90;;;;;;4406974;32;21665;-62
2021/12/22 10:07:40;;;;;;;311.10;296.43;;;-0.70;99.90;;;;;;4406558;32;20147;-64
2021/12/22 10:10:14;;;;;;;302.30;287.77;;;-0.70;99.90;;;;;;4419670;32;20144;-62
2021/12/22 10:12:46;;;;;;;307.47;292.37;;;-0.60;99.90;;;;;;4413318;32;20225;-61
2021/12/22 10:15:14;;;;;;;295.13;280.47;;;-0.60;99.90;;;;;;4408545;32;20144;-63
2021/12/22 10:17:44;;;;;;;297.60;283.27;;;-0.60;99.90;;;;;;4415896;32;20158;-61
2021/12/22 10:20:13;;;;;;;311.43;296.33;;;-0.50;99.90;;;;;;4409724;32;20144;-60
2021/12/22 10:22:42;;;;;;;313.03;298.10;;;-0.40;99.90;;;;;;4414002;32;20159;-60
2021/12/22 10:25:13;;;;;;;305.33;290.73;;;-0.40;99.90;;;;;;4408689;32;20190;-60
2021/12/22 10:27:43;;;;;;;300.30;286.10;;;-0.30;99.90;;;;;;4414532;32;20162;-59
2021/12/22 10:30:30;;;;;;;292.43;278.47;;;-0.10;99.90;;;;;;4416746;32;20487;-64
2021/12/22 10:33:12;;;;;;;287.60;273.63;;;-0.10;99.90;;;;;;4405141;32;20193;-62
2021/12/22 10:35:40;;;;;;;292.93;278.80;;;-0.10;99.90;;;;;;4406489;32;20191;-61
2021/12/22 10:38:09;;;;;;;286.87;273.23;;;-0.10;99.90;;;;;;4408247;32;20166;-62
2021/12/22 10:40:39;;;;;;;285.53;271.37;;;-0.10;99.90;;;;;;4414655;32;20149;-61
2021/12/22 10:43:09;;;;;;;293.63;279.63;;;0.00;99.90;;;;;;4416398;32;20143;-61
2021/12/22 10:45:37;;;;;;;293.53;279.97;;;0.10;99.90;;;;;;4406743;32;20148;-63
2021/12/22 10:50:56;;;;;;;284.63;270.73;;;0.30;99.90;;;;;;4408432;32;20190;-63
2021/12/22 10:53:24;;;;;;;289.23;275.43;;;0.30;99.90;;;;;;4410211;32;20152;-61
2021/12/22 10:55:54;;;;;;;289.83;275.83;;;0.40;99.90;;;;;;4409611;32;20196;-62
2021/12/22 10:58:25;;;;;;;284.13;270.23;;;0.50;99.90;;;;;;4414265;32;20166;-61
2021/12/22 11:01:08;;;;;;;292.80;279.17;;;0.50;99.90;;;;;;4407395;32;20230;-62
2021/12/22 11:03:44;;;;;;;291.40;277.60;;;0.50;99.90;;;;;;4406669;32;20252;-62
2021/12/22 11:06:17;;;;;;;288.33;275.07;;;0.60;99.90;;;;;;4412027;32;20168;-62
2021/12/22 11:08:57;;;;;;;290.67;276.93;;;0.60;99.90;;;;;;4414592;32;20162;-61
2021/12/22 11:11:29;;;;;;;281.47;268.13;;;0.70;99.90;;;;;;4406611;32;20174;-64
2021/12/22 11:14:13;;;;;;;278.70;265.23;;;0.60;99.90;;;;;;4411228;32;20162;-63
2021/12/22 11:17:04;;;;;;;271.80;259.10;;;0.70;99.90;;;;;;4409440;32;20207;-64
2021/12/22 11:19:36;;;;;;;259.27;246.97;;;0.60;99.90;;;;;;4412777;32;20166;-63
2021/12/22 11:22:13;;;;;;;263.77;251.13;;;0.60;99.90;;;;;;4411856;32;20590;-63
2021/12/22 11:24:42;;;;;;;274.30;261.37;;;0.50;99.90;;;;;;4405988;32;20222;-64
2021/12/22 11:27:12;;;;;;;286.23;272.73;;;0.50;99.90;;;;;;4409468;32;20211;-62
2021/12/22 11:29:41;;;;;;;278.97;265.80;;;0.60;99.90;;;;;;4407369;32;20159;-61
2021/12/22 11:32:10;;;;;;;277.40;264.03;;;0.60;99.90;;;;;;4407200;32;20156;-62
2021/12/22 11:34:39;;;;;;;272.10;258.83;;;0.60;99.90;;;;;;4407369;32;20187;-61
2021/12/22 11:37:10;;;;;;;272.70;260.17;;;0.60;99.90;;;;;;4406173;32;20579;-62
2021/12/22 11:39:38;;;;;;;277.97;264.40;;;0.60;99.90;;;;;;4410804;32;20148;-63
2021/12/22 11:42:50;;;;;;;282.47;268.90;;;0.50;99.90;;;;;;4412457;32;20170;-65
2021/12/22 11:45:19;;;;;;;269.43;256.70;;;0.50;99.90;;;;;;4410703;32;20218;-63
2021/12/22 11:47:50;;;;;;;284.47;268.73;;;0.50;99.90;;;;;;4408971;32;21019;-62
2021/12/22 11:50:21;;;;;;;321.03;302.03;;;0.40;99.90;;;;;;4409601;32;20159;-62
2021/12/22 11:53:02;;;;;;;335.70;315.67;;;0.40;99.90;;;;;;4407219;32;20256;-63
2021/12/22 11:55:38;;;;;;;302.13;287.07;;;0.50;99.90;;;;;;4410949;32;20173;-63
2021/12/22 11:58:18;;;;;;;293.37;279.83;;;0.40;99.90;;;;;;4413879;32;20167;-62
2021/12/22 12:00:46;;;;;;;289.97;276.40;;;0.40;99.90;;;;;;4411443;32;20560;-62
2021/12/22 12:03:26;;;;;;;297.33;283.07;;;0.40;99.90;;;;;;4409206;32;20199;-62
2021/12/22 12:06:08;;;;;;;291.37;277.80;;;0.40;99.90;;;;;;4405571;32;20551;-62
2021/12/22 12:08:37;;;;;;;283.63;270.63;;;0.40;99.90;;;;;;4406308;32;20170;-62
2021/12/22 12:11:05;;;;;;;296.70;283.13;;;0.40;99.90;;;;;;4409744;32;20175;-64
2021/12/22 12:13:43;;;;;;;297.73;283.90;;;0.40;99.90;;;;;;4412385;32;20214;-64
2021/12/22 12:22:10;;;;;;;298.27;284.33;;;0.40;99.90;;;;;;4407390;32;20170;-63
2021/12/22 12:25:02;;;;;;;300.97;286.80;;;0.40;99.90;;;;;;4408067;32;20213;-66
2021/12/22 12:27:51;;;;;;;300.93;286.77;;;0.40;99.90;;;;;;4409554;32;20136;-63
2021/12/22 12:30:42;;;;;;;293.70;279.93;;;0.40;99.90;;;;;;4407881;32;20140;-63
2021/12/22 12:33:12;;;;;;;297.60;283.80;;;0.40;99.90;;;;;;4407853;32;20152;-64
2021/12/22 12:35:57;;;;;;;307.57;293.53;;;0.40;99.90;;;;;;4406554;32;20144;-63
2021/12/22 12:38:27;;;;;;;307.67;293.53;;;0.40;99.90;;;;;;4410809;32;20152;-63
2021/12/22 12:41:17;;;;;;;304.77;290.73;;;0.50;99.90;;;;;;4411640;32;20163;-65